South Washington, Indiana
Current Conditions -  °F | °C
As of 5:15 AM on Friday 24 Oct 2014 (Local Time) from KDCY Reporting Station
Overcast Overcast  
Wind Chill: 43°   Ceiling: 3700
Heat Index: 43°   Visibility: 7mi
Dew Point: 43°   Wind: 0mph
Humidity: 100%   Direction: NA
Pressure: 30.12"   Gusts: NA
Location:  38.6427°N, 87.1768°W
Report Text: KDCY 241015Z AUTO 00000KT 7SM OVC037 06/06 A3012 RMK AO2 T00600060
Loading
Personal Weather Stations






























Interactive Weather Map New forecast layout! Learn more

10-Day Weather Forecast

Advertisements
Track Severe Weather on mobile